Elba, AL

8:50 AM CST on February 08, 2016 (GMT -0600)
Shiloh Community | | Change Station
CLOSE
Current Station
Personal Weather Station
Location: Elba, AL
Elevation: 400 ft
Nearby Weather Stations
Active Advisory: Wind Advisory

Elev 400 ft 31.39 °N, 86.01 °W | Updated 28 days ago

Clear
Clear
50 °F
Feels Like 50 °F
N
12
Wind Variable Wind from West
Gusts 22 mph

Today
High -- | Low -- °F
--% Chance of Precip.
Yesterday
High -- | Low -- °F
Precip. -- in
Pressure 29.97 in
Visibility 10.0 miles
Clouds Clear
Dew Point 38 °F
Humidity 62%
Rainfall in
Snow Depth Not available.
6:31 AM 5:24 PM
Waning Crescent, 0% visible
METAR KLOR 081353Z AUTO 25007KT 10SM CLR 07/02 A2997 RMK AO2 SLP149 T00670017 $
Pressure 29.97 in
Visibility 10.0 miles
Clouds Clear
Dew Point 38 °F
Humidity 62%
Rainfall in
Snow Depth Not available.
6:31 AM 5:24 PM
Waning Crescent, 0% visible
METAR KLOR 081353Z AUTO 25007KT 10SM CLR 07/02 A2997 RMK AO2 SLP149 T00670017 $

10-Day Weather Forecast

Almanac

Astronomy

Feb. 08, 2016 Rise Set
Actual Time
Civil Twilight
Nautical Twilight
Astronomical Twilight
Moon
Length of Visible Light
Length of Day
Tomorrow will be .
, % of the Moon is Illuminated

Today's Extremes

State Highs State Lows

Community

WunderPhotos

Upload Photos

1,891,437 photos uploaded!

WunderBlog® & News

Nearby

Air Quality

  Air Quality AQ Index Pollutant
Not available.

Snow Depth

Station Depth Elevation

Earthquake Activity

City Distance Mag. Time & Date
Minimum magnitude displayed is 2.5.

Coastal Water Temperatures

Place Temperature

Stations

Nearby Weather Stations

Station Location Temp. Windchill Dew Point Humidity Wind Precip. Elev Updated Type
                   

Watches & Warnings

Wind Advisory
Issued: 8:48 AM CST Feb. 8, 2016 – National Weather Service

... Wind Advisory in effect from 1 PM EST /noon CST/ this
afternoon to 7 PM EST /6 PM CST/ this evening...

The National Weather Service in Tallahassee has issued a Wind
Advisory... which is in effect from 1 PM EST /noon CST/ this
afternoon to 7 PM EST /6 PM CST/ this evening.

* Winds... west 20 to 25 mph with gusts near 40 mph possible.

Precautionary/preparedness actions...

A Wind Advisory means that sustained winds of 26 mph or peak gusts
to 40 mph are expected. Winds this strong can make driving
difficult... especially for high profile vehicles. Use extra
caution.